sensor_id;sensor_type;location;lat;lon;timestamp;P1;durP1;ratioP1;P2;durP2;ratioP2
1885;SDS011;943;51.568;6.998;2023-01-29T00:00:14;70.30;;;41.83;;
1885;SDS011;943;51.568;6.998;2023-01-29T00:02:43;82.57;;;43.83;;
1885;SDS011;943;51.568;6.998;2023-01-29T00:05:11;77.13;;;40.83;;
1885;SDS011;943;51.568;6.998;2023-01-29T00:07:53;73.67;;;44.63;;
1885;SDS011;943;51.568;6.998;2023-01-29T00:10:23;78.57;;;44.20;;
1885;SDS011;943;51.568;6.998;2023-01-29T00:12:52;81.47;;;45.53;;
1885;SDS011;943;51.568;6.998;2023-01-29T00:15:20;83.30;;;45.80;;
1885;SDS011;943;51.568;6.998;2023-01-29T00:17:48;70.77;;;43.63;;
1885;SDS011;943;51.568;6.998;2023-01-29T00:20:16;73.03;;;41.20;;
1885;SDS011;943;51.568;6.998;2023-01-29T00:22:45;81.73;;;43.50;;
1885;SDS011;943;51.568;6.998;2023-01-29T00:25:12;77.27;;;41.97;;
1885;SDS011;943;51.568;6.998;2023-01-29T00:27:40;121.50;;;73.70;;
1885;SDS011;943;51.568;6.998;2023-01-29T00:30:09;337.27;;;177.23;;
1885;SDS011;943;51.568;6.998;2023-01-29T00:32:39;381.90;;;206.17;;
1885;SDS011;943;51.568;6.998;2023-01-29T00:35:08;243.30;;;126.70;;
1885;SDS011;943;51.568;6.998;2023-01-29T00:37:37;138.03;;;72.97;;
1885;SDS011;943;51.568;6.998;2023-01-29T00:40:05;94.63;;;47.97;;
1885;SDS011;943;51.568;6.998;2023-01-29T00:42:36;134.93;;;69.90;;
1885;SDS011;943;51.568;6.998;2023-01-29T00:45:22;107.20;;;62.63;;
1885;SDS011;943;51.568;6.998;2023-01-29T00:47:50;89.53;;;51.80;;
1885;SDS011;943;51.568;6.998;2023-01-29T00:50:18;98.53;;;52.63;;
1885;SDS011;943;51.568;6.998;2023-01-29T00:52:46;84.43;;;45.90;;
1885;SDS011;943;51.568;6.998;2023-01-29T00:55:15;82.67;;;44.47;;
1885;SDS011;943;51.568;6.998;2023-01-29T00:57:44;80.37;;;45.67;;
1885;SDS011;943;51.568;6.998;2023-01-29T01:00:13;91.47;;;46.93;;
1885;SDS011;943;51.568;6.998;2023-01-29T01:02:45;77.43;;;40.67;;
1885;SDS011;943;51.568;6.998;2023-01-29T01:05:31;79.27;;;42.90;;
1885;SDS011;943;51.568;6.998;2023-01-29T01:07:59;76.97;;;42.20;;
1885;SDS011;943;51.568;6.998;2023-01-29T01:10:29;79.43;;;41.37;;
1885;SDS011;943;51.568;6.998;2023-01-29T01:13:03;78.60;;;40.70;;
1885;SDS011;943;51.568;6.998;2023-01-29T01:15:34;74.50;;;39.30;;
1885;SDS011;943;51.568;6.998;2023-01-29T01:18:06;83.57;;;41.97;;
1885;SDS011;943;51.568;6.998;2023-01-29T01:20:34;72.13;;;40.90;;
1885;SDS011;943;51.568;6.998;2023-01-29T01:23:03;90.17;;;42.80;;
1885;SDS011;943;51.568;6.998;2023-01-29T01:25:31;73.03;;;39.63;;
1885;SDS011;943;51.568;6.998;2023-01-29T01:27:59;69.67;;;38.17;;
1885;SDS011;943;51.568;6.998;2023-01-29T01:30:27;67.53;;;39.07;;
1885;SDS011;943;51.568;6.998;2023-01-29T01:32:55;68.63;;;38.43;;
1885;SDS011;943;51.568;6.998;2023-01-29T01:35:23;77.40;;;40.43;;
1885;SDS011;943;51.568;6.998;2023-01-29T01:37:51;70.63;;;36.90;;
1885;SDS011;943;51.568;6.998;2023-01-29T01:40:20;81.20;;;46.17;;
1885;SDS011;943;51.568;6.998;2023-01-29T01:42:52;62.90;;;38.60;;
1885;SDS011;943;51.568;6.998;2023-01-29T01:48:03;63.23;;;36.83;;
1885;SDS011;943;51.568;6.998;2023-01-29T01:50:57;71.33;;;38.27;;
1885;SDS011;943;51.568;6.998;2023-01-29T01:53:33;67.87;;;36.67;;
1885;SDS011;943;51.568;6.998;2023-01-29T01:56:43;66.80;;;36.67;;
1885;SDS011;943;51.568;6.998;2023-01-29T01:59:35;69.17;;;38.73;;
1885;SDS011;943;51.568;6.998;2023-01-29T02:02:09;73.23;;;37.07;;
1885;SDS011;943;51.568;6.998;2023-01-29T02:04:55;73.80;;;39.10;;
1885;SDS011;943;51.568;6.998;2023-01-29T02:07:44;79.53;;;40.50;;
1885;SDS011;943;51.568;6.998;2023-01-29T02:10:43;82.00;;;37.43;;
1885;SDS011;943;51.568;6.998;2023-01-29T02:13:14;74.13;;;37.67;;
1885;SDS011;943;51.568;6.998;2023-01-29T02:15:44;71.40;;;36.33;;
1885;SDS011;943;51.568;6.998;2023-01-29T02:18:15;69.10;;;36.77;;
1885;SDS011;943;51.568;6.998;2023-01-29T02:21:03;62.37;;;34.70;;
1885;SDS011;943;51.568;6.998;2023-01-29T02:27:18;68.33;;;34.00;;
1885;SDS011;943;51.568;6.998;2023-01-29T02:42:15;72.57;;;35.90;;
1885;SDS011;943;51.568;6.998;2023-01-29T02:51:55;73.20;;;33.57;;
1885;SDS011;943;51.568;6.998;2023-01-29T02:54:54;67.57;;;32.47;;
1885;SDS011;943;51.568;6.998;2023-01-29T02:58:12;73.20;;;34.90;;
1885;SDS011;943;51.568;6.998;2023-01-29T03:01:32;78.40;;;32.20;;
1885;SDS011;943;51.568;6.998;2023-01-29T03:04:23;69.73;;;32.63;;
1885;SDS011;943;51.568;6.998;2023-01-29T03:07:17;62.43;;;33.10;;
1885;SDS011;943;51.568;6.998;2023-01-29T03:10:18;69.93;;;34.33;;
1885;SDS011;943;51.568;6.998;2023-01-29T03:13:29;76.27;;;34.17;;
1885;SDS011;943;51.568;6.998;2023-01-29T03:19:09;64.83;;;33.40;;
1885;SDS011;943;51.568;6.998;2023-01-29T03:22:07;69.37;;;31.33;;
1885;SDS011;943;51.568;6.998;2023-01-29T03:24:45;72.30;;;34.67;;
1885;SDS011;943;51.568;6.998;2023-01-29T03:27:47;67.80;;;34.70;;
1885;SDS011;943;51.568;6.998;2023-01-29T03:30:55;62.47;;;32.27;;
1885;SDS011;943;51.568;6.998;2023-01-29T03:34:05;67.37;;;32.80;;
1885;SDS011;943;51.568;6.998;2023-01-29T03:37:02;60.73;;;31.47;;
1885;SDS011;943;51.568;6.998;2023-01-29T03:40:12;72.37;;;35.13;;
1885;SDS011;943;51.568;6.998;2023-01-29T03:42:55;65.17;;;34.30;;
1885;SDS011;943;51.568;6.998;2023-01-29T03:52:30;74.00;;;34.77;;
1885;SDS011;943;51.568;6.998;2023-01-29T03:55:52;75.43;;;35.07;;
1885;SDS011;943;51.568;6.998;2023-01-29T03:59:19;71.23;;;34.63;;
1885;SDS011;943;51.568;6.998;2023-01-29T04:02:42;78.20;;;34.37;;
1885;SDS011;943;51.568;6.998;2023-01-29T04:05:58;70.13;;;35.30;;
1885;SDS011;943;51.568;6.998;2023-01-29T04:09:02;66.73;;;32.83;;
1885;SDS011;943;51.568;6.998;2023-01-29T04:12:03;67.67;;;33.00;;
1885;SDS011;943;51.568;6.998;2023-01-29T04:14:40;67.70;;;33.10;;
1885;SDS011;943;51.568;6.998;2023-01-29T04:17:13;75.73;;;33.93;;
1885;SDS011;943;51.568;6.998;2023-01-29T04:20:16;65.93;;;33.50;;
1885;SDS011;943;51.568;6.998;2023-01-29T04:22:46;68.77;;;33.73;;
1885;SDS011;943;51.568;6.998;2023-01-29T04:25:20;63.07;;;34.30;;
1885;SDS011;943;51.568;6.998;2023-01-29T04:31:05;59.03;;;32.57;;
1885;SDS011;943;51.568;6.998;2023-01-29T04:39:51;64.40;;;32.60;;
1885;SDS011;943;51.568;6.998;2023-01-29T04:43:08;55.13;;;29.63;;
1885;SDS011;943;51.568;6.998;2023-01-29T04:58:38;61.47;;;31.40;;
1885;SDS011;943;51.568;6.998;2023-01-29T05:01:32;66.87;;;33.33;;
1885;SDS011;943;51.568;6.998;2023-01-29T05:04:04;69.97;;;34.70;;
1885;SDS011;943;51.568;6.998;2023-01-29T05:06:45;56.10;;;28.90;;
1885;SDS011;943;51.568;6.998;2023-01-29T05:09:15;60.97;;;34.63;;
1885;SDS011;943;51.568;6.998;2023-01-29T05:11:45;64.43;;;31.50;;
1885;SDS011;943;51.568;6.998;2023-01-29T05:14:16;57.10;;;30.03;;
1885;SDS011;943;51.568;6.998;2023-01-29T05:16:50;61.57;;;29.43;;
1885;SDS011;943;51.568;6.998;2023-01-29T05:19:24;54.93;;;29.20;;
1885;SDS011;943;51.568;6.998;2023-01-29T05:21:52;56.10;;;28.40;;
1885;SDS011;943;51.568;6.998;2023-01-29T05:24:21;60.90;;;32.03;;
1885;SDS011;943;51.568;6.998;2023-01-29T05:26:53;62.90;;;31.70;;
1885;SDS011;943;51.568;6.998;2023-01-29T05:29:40;58.60;;;30.30;;
1885;SDS011;943;51.568;6.998;2023-01-29T05:32:13;52.67;;;30.13;;
1885;SDS011;943;51.568;6.998;2023-01-29T05:34:42;51.30;;;27.50;;
1885;SDS011;943;51.568;6.998;2023-01-29T05:37:10;52.83;;;28.07;;
1885;SDS011;943;51.568;6.998;2023-01-29T05:39:38;59.00;;;31.97;;
1885;SDS011;943;51.568;6.998;2023-01-29T05:42:05;56.77;;;30.47;;
1885;SDS011;943;51.568;6.998;2023-01-29T05:44:33;52.20;;;28.90;;
1885;SDS011;943;51.568;6.998;2023-01-29T05:47:01;59.27;;;31.30;;
1885;SDS011;943;51.568;6.998;2023-01-29T05:49:29;59.10;;;31.93;;
1885;SDS011;943;51.568;6.998;2023-01-29T05:51:56;54.20;;;28.57;;
1885;SDS011;943;51.568;6.998;2023-01-29T05:54:24;54.37;;;30.27;;
1885;SDS011;943;51.568;6.998;2023-01-29T05:56:52;50.90;;;27.40;;
1885;SDS011;943;51.568;6.998;2023-01-29T05:59:20;57.50;;;31.60;;
1885;SDS011;943;51.568;6.998;2023-01-29T06:01:48;48.37;;;29.67;;
1885;SDS011;943;51.568;6.998;2023-01-29T06:04:16;53.67;;;28.77;;
1885;SDS011;943;51.568;6.998;2023-01-29T06:06:43;52.07;;;29.03;;
1885;SDS011;943;51.568;6.998;2023-01-29T06:09:11;48.37;;;27.80;;
1885;SDS011;943;51.568;6.998;2023-01-29T06:11:39;49.40;;;29.87;;
1885;SDS011;943;51.568;6.998;2023-01-29T06:14:07;57.40;;;28.80;;
1885;SDS011;943;51.568;6.998;2023-01-29T06:16:35;70.80;;;31.40;;
1885;SDS011;943;51.568;6.998;2023-01-29T06:19:02;48.77;;;28.73;;
1885;SDS011;943;51.568;6.998;2023-01-29T06:21:30;55.70;;;30.97;;
1885;SDS011;943;51.568;6.998;2023-01-29T06:23:58;55.57;;;29.80;;
1885;SDS011;943;51.568;6.998;2023-01-29T06:26:26;62.07;;;31.23;;
1885;SDS011;943;51.568;6.998;2023-01-29T06:28:54;53.30;;;29.97;;
1885;SDS011;943;51.568;6.998;2023-01-29T06:31:22;50.37;;;29.17;;
1885;SDS011;943;51.568;6.998;2023-01-29T06:34:04;55.27;;;28.37;;
1885;SDS011;943;51.568;6.998;2023-01-29T06:36:33;55.50;;;32.27;;
1885;SDS011;943;51.568;6.998;2023-01-29T06:39:02;52.83;;;29.20;;
1885;SDS011;943;51.568;6.998;2023-01-29T06:41:30;52.80;;;29.40;;
1885;SDS011;943;51.568;6.998;2023-01-29T06:43:58;54.77;;;28.60;;
1885;SDS011;943;51.568;6.998;2023-01-29T06:46:26;56.37;;;28.07;;
1885;SDS011;943;51.568;6.998;2023-01-29T06:48:56;62.53;;;31.57;;
1885;SDS011;943;51.568;6.998;2023-01-29T06:51:28;52.03;;;29.43;;
1885;SDS011;943;51.568;6.998;2023-01-29T06:53:56;50.37;;;29.20;;
1885;SDS011;943;51.568;6.998;2023-01-29T06:56:25;56.13;;;29.00;;
1885;SDS011;943;51.568;6.998;2023-01-29T06:58:53;52.33;;;28.30;;
1885;SDS011;943;51.568;6.998;2023-01-29T07:01:21;53.73;;;31.00;;
1885;SDS011;943;51.568;6.998;2023-01-29T07:04:01;56.97;;;31.93;;
1885;SDS011;943;51.568;6.998;2023-01-29T07:06:32;54.13;;;27.93;;
1885;SDS011;943;51.568;6.998;2023-01-29T07:09:00;49.50;;;28.73;;
1885;SDS011;943;51.568;6.998;2023-01-29T07:11:32;51.80;;;29.10;;
1885;SDS011;943;51.568;6.998;2023-01-29T07:14:03;51.93;;;29.37;;
1885;SDS011;943;51.568;6.998;2023-01-29T07:16:32;58.30;;;31.40;;
1885;SDS011;943;51.568;6.998;2023-01-29T07:19:00;50.70;;;29.00;;
1885;SDS011;943;51.568;6.998;2023-01-29T07:21:28;46.73;;;29.50;;
1885;SDS011;943;51.568;6.998;2023-01-29T07:23:56;47.97;;;30.57;;
1885;SDS011;943;51.568;6.998;2023-01-29T07:26:24;58.17;;;29.80;;
1885;SDS011;943;51.568;6.998;2023-01-29T07:28:52;56.10;;;32.40;;
1885;SDS011;943;51.568;6.998;2023-01-29T07:31:21;53.20;;;29.20;;
1885;SDS011;943;51.568;6.998;2023-01-29T07:33:49;58.70;;;33.40;;
1885;SDS011;943;51.568;6.998;2023-01-29T07:36:19;55.27;;;32.03;;
1885;SDS011;943;51.568;6.998;2023-01-29T07:38:48;60.30;;;33.00;;
1885;SDS011;943;51.568;6.998;2023-01-29T07:41:17;53.33;;;30.43;;
1885;SDS011;943;51.568;6.998;2023-01-29T07:43:45;50.67;;;27.13;;
1885;SDS011;943;51.568;6.998;2023-01-29T07:46:14;58.23;;;29.43;;
1885;SDS011;943;51.568;6.998;2023-01-29T07:48:42;51.73;;;29.83;;
1885;SDS011;943;51.568;6.998;2023-01-29T07:51:10;56.23;;;32.77;;
1885;SDS011;943;51.568;6.998;2023-01-29T07:53:38;52.30;;;30.60;;
1885;SDS011;943;51.568;6.998;2023-01-29T07:56:06;55.07;;;30.20;;
1885;SDS011;943;51.568;6.998;2023-01-29T07:58:34;50.93;;;27.13;;
1885;SDS011;943;51.568;6.998;2023-01-29T08:01:05;56.03;;;30.10;;
1885;SDS011;943;51.568;6.998;2023-01-29T08:03:34;56.93;;;32.23;;
1885;SDS011;943;51.568;6.998;2023-01-29T08:06:03;60.20;;;34.47;;
1885;SDS011;943;51.568;6.998;2023-01-29T08:08:32;53.63;;;31.03;;
1885;SDS011;943;51.568;6.998;2023-01-29T08:11:03;54.63;;;31.23;;
1885;SDS011;943;51.568;6.998;2023-01-29T08:13:31;53.73;;;29.70;;
1885;SDS011;943;51.568;6.998;2023-01-29T08:16:00;51.90;;;29.80;;
1885;SDS011;943;51.568;6.998;2023-01-29T08:18:30;48.60;;;27.47;;
1885;SDS011;943;51.568;6.998;2023-01-29T08:20:58;54.40;;;29.33;;
1885;SDS011;943;51.568;6.998;2023-01-29T08:23:27;54.63;;;28.80;;
1885;SDS011;943;51.568;6.998;2023-01-29T08:25:56;51.27;;;27.30;;
1885;SDS011;943;51.568;6.998;2023-01-29T08:28:24;51.70;;;29.80;;
1885;SDS011;943;51.568;6.998;2023-01-29T08:30:52;57.67;;;30.90;;
1885;SDS011;943;51.568;6.998;2023-01-29T08:33:20;49.17;;;26.83;;
1885;SDS011;943;51.568;6.998;2023-01-29T08:36:04;48.23;;;26.90;;
1885;SDS011;943;51.568;6.998;2023-01-29T08:38:35;57.43;;;30.00;;
1885;SDS011;943;51.568;6.998;2023-01-29T08:41:02;58.23;;;28.23;;
1885;SDS011;943;51.568;6.998;2023-01-29T08:43:32;50.73;;;29.63;;
1885;SDS011;943;51.568;6.998;2023-01-29T08:46:05;52.63;;;28.60;;
1885;SDS011;943;51.568;6.998;2023-01-29T08:48:34;54.70;;;25.43;;
1885;SDS011;943;51.568;6.998;2023-01-29T08:51:02;49.53;;;27.80;;
1885;SDS011;943;51.568;6.998;2023-01-29T08:53:31;50.53;;;28.33;;
1885;SDS011;943;51.568;6.998;2023-01-29T08:55:59;52.17;;;28.70;;
1885;SDS011;943;51.568;6.998;2023-01-29T08:58:27;49.20;;;29.60;;
1885;SDS011;943;51.568;6.998;2023-01-29T09:00:55;53.23;;;30.37;;
1885;SDS011;943;51.568;6.998;2023-01-29T09:03:44;51.53;;;29.47;;
1885;SDS011;943;51.568;6.998;2023-01-29T09:06:13;52.60;;;30.90;;
1885;SDS011;943;51.568;6.998;2023-01-29T09:08:41;52.50;;;28.70;;
1885;SDS011;943;51.568;6.998;2023-01-29T09:11:09;59.70;;;29.27;;
1885;SDS011;943;51.568;6.998;2023-01-29T09:13:37;48.00;;;26.50;;
1885;SDS011;943;51.568;6.998;2023-01-29T09:16:05;57.90;;;29.97;;
1885;SDS011;943;51.568;6.998;2023-01-29T09:18:35;48.33;;;25.93;;
1885;SDS011;943;51.568;6.998;2023-01-29T09:21:03;51.57;;;28.37;;
1885;SDS011;943;51.568;6.998;2023-01-29T09:23:31;52.67;;;28.60;;
1885;SDS011;943;51.568;6.998;2023-01-29T09:25:59;50.23;;;29.37;;
1885;SDS011;943;51.568;6.998;2023-01-29T09:28:27;52.20;;;28.00;;
1885;SDS011;943;51.568;6.998;2023-01-29T09:30:55;50.80;;;28.20;;
1885;SDS011;943;51.568;6.998;2023-01-29T09:33:28;47.37;;;27.17;;
1885;SDS011;943;51.568;6.998;2023-01-29T09:35:57;46.80;;;27.60;;
1885;SDS011;943;51.568;6.998;2023-01-29T09:38:28;58.70;;;28.07;;
1885;SDS011;943;51.568;6.998;2023-01-29T09:47:50;51.17;;;27.80;;
1885;SDS011;943;51.568;6.998;2023-01-29T09:50:35;50.33;;;27.73;;
1885;SDS011;943;51.568;6.998;2023-01-29T09:54:00;47.30;;;29.00;;
1885;SDS011;943;51.568;6.998;2023-01-29T09:58:56;43.33;;;26.37;;
1885;SDS011;943;51.568;6.998;2023-01-29T10:04:35;48.63;;;27.93;;
1885;SDS011;943;51.568;6.998;2023-01-29T10:27:52;49.20;;;28.00;;
1885;SDS011;943;51.568;6.998;2023-01-29T10:30:30;55.93;;;29.83;;
1885;SDS011;943;51.568;6.998;2023-01-29T10:33:12;47.53;;;27.60;;
1885;SDS011;943;51.568;6.998;2023-01-29T10:36:24;50.07;;;27.70;;
1885;SDS011;943;51.568;6.998;2023-01-29T10:39:23;48.97;;;28.60;;
1885;SDS011;943;51.568;6.998;2023-01-29T10:45:15;44.50;;;24.83;;
1885;SDS011;943;51.568;6.998;2023-01-29T10:48:56;47.43;;;26.23;;
1885;SDS011;943;51.568;6.998;2023-01-29T11:02:10;46.63;;;26.40;;
1885;SDS011;943;51.568;6.998;2023-01-29T11:04:48;54.90;;;29.00;;
1885;SDS011;943;51.568;6.998;2023-01-29T11:07:17;46.30;;;26.47;;
1885;SDS011;943;51.568;6.998;2023-01-29T11:09:53;43.80;;;25.80;;
1885;SDS011;943;51.568;6.998;2023-01-29T11:12:40;46.43;;;25.50;;
1885;SDS011;943;51.568;6.998;2023-01-29T11:15:18;47.57;;;27.10;;
1885;SDS011;943;51.568;6.998;2023-01-29T11:18:05;50.30;;;26.70;;
1885;SDS011;943;51.568;6.998;2023-01-29T11:20:42;50.00;;;27.00;;
1885;SDS011;943;51.568;6.998;2023-01-29T11:23:25;53.20;;;28.30;;
1885;SDS011;943;51.568;6.998;2023-01-29T11:25:59;48.23;;;26.03;;
1885;SDS011;943;51.568;6.998;2023-01-29T11:28:44;45.67;;;26.57;;
1885;SDS011;943;51.568;6.998;2023-01-29T11:34:04;50.00;;;26.37;;
1885;SDS011;943;51.568;6.998;2023-01-29T11:37:04;50.30;;;26.87;;
1885;SDS011;943;51.568;6.998;2023-01-29T11:39:43;51.50;;;26.87;;
1885;SDS011;943;51.568;6.998;2023-01-29T11:42:18;51.17;;;27.30;;
1885;SDS011;943;51.568;6.998;2023-01-29T11:44:49;46.90;;;26.93;;
1885;SDS011;943;51.568;6.998;2023-01-29T11:49:59;45.80;;;26.57;;
1885;SDS011;943;51.568;6.998;2023-01-29T11:52:34;43.50;;;25.20;;
1885;SDS011;943;51.568;6.998;2023-01-29T11:55:16;47.33;;;28.03;;
1885;SDS011;943;51.568;6.998;2023-01-29T11:58:05;47.07;;;27.67;;
1885;SDS011;943;51.568;6.998;2023-01-29T12:00:52;52.53;;;27.50;;
1885;SDS011;943;51.568;6.998;2023-01-29T12:09:02;43.20;;;24.23;;
1885;SDS011;943;51.568;6.998;2023-01-29T12:11:45;47.63;;;26.30;;
1885;SDS011;943;51.568;6.998;2023-01-29T12:17:09;47.07;;;26.70;;
1885;SDS011;943;51.568;6.998;2023-01-29T12:19:58;51.53;;;26.37;;
1885;SDS011;943;51.568;6.998;2023-01-29T12:22:41;45.17;;;26.10;;
1885;SDS011;943;51.568;6.998;2023-01-29T12:35:55;46.30;;;26.87;;
1885;SDS011;943;51.568;6.998;2023-01-29T12:39:21;51.40;;;25.60;;
1885;SDS011;943;51.568;6.998;2023-01-29T12:41:51;49.47;;;26.23;;
1885;SDS011;943;51.568;6.998;2023-01-29T12:44:49;45.67;;;25.57;;
1885;SDS011;943;51.568;6.998;2023-01-29T12:47:40;50.17;;;27.00;;
1885;SDS011;943;51.568;6.998;2023-01-29T12:50:36;51.97;;;27.23;;
1885;SDS011;943;51.568;6.998;2023-01-29T12:53:19;46.60;;;26.30;;
1885;SDS011;943;51.568;6.998;2023-01-29T12:56:27;48.00;;;26.80;;
1885;SDS011;943;51.568;6.998;2023-01-29T12:59:04;45.03;;;26.43;;
1885;SDS011;943;51.568;6.998;2023-01-29T13:08:15;46.87;;;25.07;;
1885;SDS011;943;51.568;6.998;2023-01-29T13:10:58;51.40;;;25.03;;
1885;SDS011;943;51.568;6.998;2023-01-29T13:13:40;42.50;;;23.93;;
1885;SDS011;943;51.568;6.998;2023-01-29T13:16:39;44.00;;;25.80;;
1885;SDS011;943;51.568;6.998;2023-01-29T13:19:19;46.17;;;26.40;;
1885;SDS011;943;51.568;6.998;2023-01-29T13:22:32;39.67;;;21.57;;
1885;SDS011;943;51.568;6.998;2023-01-29T13:25:11;52.80;;;28.07;;
1885;SDS011;943;51.568;6.998;2023-01-29T13:27:46;43.87;;;26.63;;
1885;SDS011;943;51.568;6.998;2023-01-29T13:30:26;42.63;;;24.53;;
1885;SDS011;943;51.568;6.998;2023-01-29T13:33:00;40.03;;;22.10;;
1885;SDS011;943;51.568;6.998;2023-01-29T13:35:37;48.10;;;26.70;;
1885;SDS011;943;51.568;6.998;2023-01-29T13:38:21;43.57;;;26.30;;
1885;SDS011;943;51.568;6.998;2023-01-29T13:41:01;47.30;;;26.10;;
1885;SDS011;943;51.568;6.998;2023-01-29T13:43:35;42.83;;;25.50;;
1885;SDS011;943;51.568;6.998;2023-01-29T13:46:15;39.90;;;25.57;;
1885;SDS011;943;51.568;6.998;2023-01-29T13:48:47;42.87;;;25.10;;
1885;SDS011;943;51.568;6.998;2023-01-29T13:51:21;44.23;;;24.60;;
1885;SDS011;943;51.568;6.998;2023-01-29T13:54:03;44.73;;;26.97;;
1885;SDS011;943;51.568;6.998;2023-01-29T13:59:22;46.33;;;24.50;;
1885;SDS011;943;51.568;6.998;2023-01-29T14:02:22;41.70;;;24.70;;
1885;SDS011;943;51.568;6.998;2023-01-29T14:05:56;47.90;;;25.07;;
1885;SDS011;943;51.568;6.998;2023-01-29T14:10:39;48.90;;;25.80;;
1885;SDS011;943;51.568;6.998;2023-01-29T14:18:33;46.30;;;25.43;;
1885;SDS011;943;51.568;6.998;2023-01-29T14:23:57;42.27;;;23.47;;
1885;SDS011;943;51.568;6.998;2023-01-29T14:26:48;49.17;;;25.43;;
1885;SDS011;943;51.568;6.998;2023-01-29T14:29:26;49.60;;;26.00;;
1885;SDS011;943;51.568;6.998;2023-01-29T14:32:13;46.20;;;24.47;;
1885;SDS011;943;51.568;6.998;2023-01-29T14:35:00;45.67;;;25.07;;
1885;SDS011;943;51.568;6.998;2023-01-29T14:37:48;47.33;;;26.40;;
1885;SDS011;943;51.568;6.998;2023-01-29T14:40:26;41.33;;;23.27;;
1885;SDS011;943;51.568;6.998;2023-01-29T14:43:07;51.13;;;27.57;;
1885;SDS011;943;51.568;6.998;2023-01-29T14:45:47;46.50;;;27.97;;
1885;SDS011;943;51.568;6.998;2023-01-29T14:48:37;45.07;;;24.07;;
1885;SDS011;943;51.568;6.998;2023-01-29T14:51:17;49.60;;;27.90;;
1885;SDS011;943;51.568;6.998;2023-01-29T14:54:00;43.93;;;24.10;;
1885;SDS011;943;51.568;6.998;2023-01-29T14:57:00;51.50;;;26.83;;
1885;SDS011;943;51.568;6.998;2023-01-29T14:59:43;41.90;;;22.63;;
1885;SDS011;943;51.568;6.998;2023-01-29T15:02:27;43.33;;;25.00;;
1885;SDS011;943;51.568;6.998;2023-01-29T15:05:13;51.77;;;26.33;;
1885;SDS011;943;51.568;6.998;2023-01-29T15:10:58;40.47;;;23.17;;
1885;SDS011;943;51.568;6.998;2023-01-29T15:14:16;41.73;;;24.00;;
1885;SDS011;943;51.568;6.998;2023-01-29T15:17:17;47.60;;;25.17;;
1885;SDS011;943;51.568;6.998;2023-01-29T15:19:59;47.07;;;25.90;;
1885;SDS011;943;51.568;6.998;2023-01-29T15:22:27;54.43;;;29.13;;
1885;SDS011;943;51.568;6.998;2023-01-29T15:25:04;55.30;;;27.60;;
1885;SDS011;943;51.568;6.998;2023-01-29T15:27:42;42.67;;;24.23;;
1885;SDS011;943;51.568;6.998;2023-01-29T15:30:20;44.57;;;25.50;;
1885;SDS011;943;51.568;6.998;2023-01-29T15:32:59;47.17;;;25.50;;
1885;SDS011;943;51.568;6.998;2023-01-29T15:35:34;47.60;;;26.93;;
1885;SDS011;943;51.568;6.998;2023-01-29T15:38:16;45.33;;;25.67;;
1885;SDS011;943;51.568;6.998;2023-01-29T15:40:51;43.23;;;24.33;;
1885;SDS011;943;51.568;6.998;2023-01-29T15:43:28;46.87;;;26.87;;
1885;SDS011;943;51.568;6.998;2023-01-29T15:46:04;46.60;;;26.47;;
1885;SDS011;943;51.568;6.998;2023-01-29T15:49:05;42.87;;;22.90;;
1885;SDS011;943;51.568;6.998;2023-01-29T15:51:53;43.67;;;24.00;;
1885;SDS011;943;51.568;6.998;2023-01-29T15:54:28;38.10;;;22.40;;
1885;SDS011;943;51.568;6.998;2023-01-29T15:57:01;45.27;;;25.97;;
1885;SDS011;943;51.568;6.998;2023-01-29T15:59:33;44.20;;;24.00;;
1885;SDS011;943;51.568;6.998;2023-01-29T16:02:17;43.40;;;25.50;;
1885;SDS011;943;51.568;6.998;2023-01-29T16:05:04;39.57;;;24.53;;
1885;SDS011;943;51.568;6.998;2023-01-29T16:07:58;46.93;;;26.77;;
1885;SDS011;943;51.568;6.998;2023-01-29T16:10:29;39.23;;;23.30;;
1885;SDS011;943;51.568;6.998;2023-01-29T16:13:00;42.50;;;22.97;;
1885;SDS011;943;51.568;6.998;2023-01-29T16:15:31;41.00;;;24.83;;
1885;SDS011;943;51.568;6.998;2023-01-29T16:18:04;49.43;;;26.73;;
1885;SDS011;943;51.568;6.998;2023-01-29T16:24:05;43.17;;;21.20;;
1885;SDS011;943;51.568;6.998;2023-01-29T16:26:42;40.90;;;24.83;;
1885;SDS011;943;51.568;6.998;2023-01-29T16:29:17;41.83;;;24.47;;
1885;SDS011;943;51.568;6.998;2023-01-29T16:31:58;41.70;;;23.07;;
1885;SDS011;943;51.568;6.998;2023-01-29T16:37:23;41.80;;;20.80;;
1885;SDS011;943;51.568;6.998;2023-01-29T16:39:59;33.33;;;21.47;;
1885;SDS011;943;51.568;6.998;2023-01-29T16:42:38;39.73;;;22.23;;
1885;SDS011;943;51.568;6.998;2023-01-29T16:45:27;36.50;;;21.53;;
1885;SDS011;943;51.568;6.998;2023-01-29T16:48:01;40.57;;;23.97;;
1885;SDS011;943;51.568;6.998;2023-01-29T16:51:20;34.27;;;18.87;;
1885;SDS011;943;51.568;6.998;2023-01-29T16:54:00;37.90;;;23.17;;
1885;SDS011;943;51.568;6.998;2023-01-29T16:56:49;43.20;;;21.07;;
1885;SDS011;943;51.568;6.998;2023-01-29T16:59:30;35.00;;;21.20;;
1885;SDS011;943;51.568;6.998;2023-01-29T17:02:08;40.30;;;22.33;;
1885;SDS011;943;51.568;6.998;2023-01-29T17:04:56;40.23;;;21.60;;
1885;SDS011;943;51.568;6.998;2023-01-29T17:07:34;35.53;;;21.17;;
1885;SDS011;943;51.568;6.998;2023-01-29T17:10:04;37.60;;;20.90;;
1885;SDS011;943;51.568;6.998;2023-01-29T17:12:33;40.37;;;20.87;;
1885;SDS011;943;51.568;6.998;2023-01-29T17:15:20;38.07;;;19.70;;
1885;SDS011;943;51.568;6.998;2023-01-29T17:18:22;35.20;;;21.10;;
1885;SDS011;943;51.568;6.998;2023-01-29T17:20:51;34.67;;;20.33;;
1885;SDS011;943;51.568;6.998;2023-01-29T17:23:20;36.60;;;21.63;;
1885;SDS011;943;51.568;6.998;2023-01-29T17:25:49;36.40;;;21.43;;
1885;SDS011;943;51.568;6.998;2023-01-29T17:28:17;33.53;;;19.30;;
1885;SDS011;943;51.568;6.998;2023-01-29T17:30:45;34.03;;;20.23;;
1885;SDS011;943;51.568;6.998;2023-01-29T17:33:30;37.40;;;20.67;;
1885;SDS011;943;51.568;6.998;2023-01-29T17:36:01;34.77;;;20.70;;
1885;SDS011;943;51.568;6.998;2023-01-29T17:38:29;33.00;;;20.30;;
1885;SDS011;943;51.568;6.998;2023-01-29T17:43:59;35.27;;;21.60;;
1885;SDS011;943;51.568;6.998;2023-01-29T17:46:27;33.63;;;20.80;;
1885;SDS011;943;51.568;6.998;2023-01-29T17:48:55;37.00;;;23.00;;
1885;SDS011;943;51.568;6.998;2023-01-29T17:51:23;34.20;;;21.87;;
1885;SDS011;943;51.568;6.998;2023-01-29T17:53:51;34.57;;;21.17;;
1885;SDS011;943;51.568;6.998;2023-01-29T17:56:25;37.47;;;21.63;;
1885;SDS011;943;51.568;6.998;2023-01-29T17:58:53;34.80;;;21.33;;
1885;SDS011;943;51.568;6.998;2023-01-29T18:01:21;33.50;;;19.67;;
1885;SDS011;943;51.568;6.998;2023-01-29T18:03:49;43.30;;;21.57;;
1885;SDS011;943;51.568;6.998;2023-01-29T18:06:19;32.67;;;20.90;;
1885;SDS011;943;51.568;6.998;2023-01-29T18:08:55;36.10;;;21.70;;
1885;SDS011;943;51.568;6.998;2023-01-29T18:11:23;38.00;;;22.53;;
1885;SDS011;943;51.568;6.998;2023-01-29T18:13:52;42.00;;;22.80;;
1885;SDS011;943;51.568;6.998;2023-01-29T18:16:22;39.50;;;22.10;;
1885;SDS011;943;51.568;6.998;2023-01-29T18:18:52;40.20;;;21.13;;
1885;SDS011;943;51.568;6.998;2023-01-29T18:21:20;39.03;;;22.83;;
1885;SDS011;943;51.568;6.998;2023-01-29T18:23:48;39.90;;;22.73;;
1885;SDS011;943;51.568;6.998;2023-01-29T18:26:16;39.50;;;20.93;;
1885;SDS011;943;51.568;6.998;2023-01-29T18:28:44;40.77;;;22.37;;
1885;SDS011;943;51.568;6.998;2023-01-29T18:31:11;36.63;;;20.53;;
1885;SDS011;943;51.568;6.998;2023-01-29T18:33:40;41.03;;;21.73;;
1885;SDS011;943;51.568;6.998;2023-01-29T18:36:08;40.67;;;24.17;;
1885;SDS011;943;51.568;6.998;2023-01-29T18:38:36;38.23;;;21.53;;
1885;SDS011;943;51.568;6.998;2023-01-29T18:41:05;37.50;;;22.57;;
1885;SDS011;943;51.568;6.998;2023-01-29T18:43:37;40.97;;;22.20;;